createdAt,value
2019-02-07T00:00:54.791Z,101141.54
2019-02-07T00:03:23.962Z,101135.26
2019-02-07T00:05:53.124Z,101127.17
2019-02-07T00:08:24.057Z,101118.97
2019-02-07T00:10:53.180Z,101114.49
2019-02-07T00:13:22.389Z,101114.49
2019-02-07T00:15:51.506Z,101109.81
2019-02-07T00:18:20.669Z,101083.67
2019-02-07T00:20:49.734Z,101084.02
2019-02-07T00:23:19.219Z,101076.50
2019-02-07T00:25:48.305Z,101064.14
2019-02-07T00:28:17.313Z,101063.28
2019-02-07T00:30:46.392Z,101052.73
2019-02-07T00:33:15.576Z,101048.92
2019-02-07T00:35:44.735Z,101048.92
2019-02-07T00:38:24.950Z,101038.27
2019-02-07T00:40:44.928Z,101033.60
2019-02-07T00:43:14.015Z,101022.28
2019-02-07T00:45:43.032Z,101021.45
2019-02-07T00:48:12.144Z,101011.30
2019-02-07T00:50:41.255Z,101004.95
2019-02-07T00:53:10.281Z,100997.67
2019-02-07T00:55:39.382Z,100989.23
2019-02-07T00:58:08.561Z,100989.23
2019-02-07T01:00:37.753Z,100982.78
2019-02-07T01:03:06.914Z,100982.78
2019-02-07T01:05:36.107Z,100975.50
2019-02-07T01:08:05.755Z,100955.87
2019-02-07T01:10:34.923Z,100962.48
2019-02-07T01:13:04.517Z,100962.71
2019-02-07T01:15:33.782Z,100960.64
2019-02-07T01:18:02.894Z,100950.96
2019-02-07T01:20:32.057Z,100950.96
2019-02-07T01:23:01.135Z,100939.48
2019-02-07T01:25:30.306Z,100935.27
2019-02-07T01:27:59.398Z,100926.53
2019-02-07T01:30:28.696Z,100926.53
2019-02-07T01:32:57.797Z,100926.89
2019-02-07T01:35:26.974Z,100912.50
2019-02-07T01:37:56.410Z,100902.28
2019-02-07T01:40:27.627Z,100897.17
2019-02-07T01:42:56.668Z,100897.17
2019-02-07T01:45:25.940Z,100885.06
2019-02-07T01:47:55.081Z,100885.06
2019-02-07T01:50:24.690Z,100883.80
2019-02-07T01:52:54.023Z,100879.41
2019-02-07T01:55:23.208Z,100876.44
2019-02-07T01:57:52.698Z,100864.25
2019-02-07T02:00:21.878Z,100860.34
2019-02-07T02:02:51.341Z,100857.84
2019-02-07T02:05:21.013Z,100857.84
2019-02-07T02:07:51.169Z,100848.16
2019-02-07T02:10:22.638Z,100846.23
2019-02-07T02:12:51.884Z,100846.23
2019-02-07T02:15:24.955Z,100833.18
2019-02-07T02:17:53.580Z,100826.58
2019-02-07T02:20:23.892Z,100821.13
2019-02-07T02:22:53.887Z,100811.73
2019-02-07T02:25:23.272Z,100802.90
2019-02-07T02:27:52.795Z,100803.54
2019-02-07T02:30:30.254Z,100803.54
2019-02-07T02:32:59.467Z,100788.38
2019-02-07T02:35:28.670Z,100782.21
2019-02-07T02:37:57.772Z,100779.55
2019-02-07T02:40:26.946Z,100767.73
2019-02-07T02:42:56.427Z,100767.22
2019-02-07T02:45:37.122Z,100763.69
2019-02-07T02:47:57.022Z,100754.80
2019-02-07T02:50:26.503Z,100748.38
2019-02-07T02:52:55.682Z,100748.38
2019-02-07T02:55:44.258Z,100737.78
2019-02-07T02:58:13.339Z,100737.78
2019-02-07T03:01:01.791Z,100728.82
2019-02-07T03:03:38.544Z,100724.06
2019-02-07T03:06:44.869Z,100711.77
2019-02-07T03:09:34.553Z,100710.53
2019-02-07T03:12:20.707Z,100705.97
2019-02-07T03:15:26.691Z,100697.52
2019-02-07T03:18:13.595Z,100690.22
2019-02-07T03:21:00.574Z,100690.22
2019-02-07T03:23:44.044Z,100681.28
2019-02-07T03:26:34.930Z,100670.81
2019-02-07T03:29:35.986Z,100668.59
2019-02-07T03:32:18.216Z,100655.11
2019-02-07T03:34:59.175Z,100655.11
2019-02-07T03:37:47.238Z,100646.02
2019-02-07T03:40:38.607Z,100637.09
2019-02-07T03:43:29.924Z,100629.83
2019-02-07T03:46:16.745Z,100625.45
2019-02-07T03:49:04.005Z,100625.45
2019-02-07T03:51:52.041Z,100610.96
2019-02-07T03:54:31.063Z,100608.42
2019-02-07T03:57:09.249Z,100608.42
2019-02-07T04:00:15.815Z,100602.31
2019-02-07T04:03:06.549Z,100602.70
2019-02-07T04:05:54.671Z,100592.60
2019-02-07T04:08:40.071Z,100593.88
2019-02-07T04:11:26.945Z,100593.88
2019-02-07T04:14:16.978Z,100582.23
2019-02-07T04:17:03.673Z,100575.83
2019-02-07T04:20:03.943Z,100575.13
2019-02-07T04:22:54.901Z,100558.80
2019-02-07T04:25:41.491Z,100556.25
2019-02-07T04:28:35.655Z,100558.35
2019-02-07T04:31:22.381Z,100548.11
2019-02-07T04:34:09.313Z,100537.06
2019-02-07T04:36:52.669Z,100550.56
2019-02-07T04:39:46.802Z,100530.50
2019-02-07T04:42:34.825Z,100521.13
2019-02-07T04:45:24.810Z,100519.72
2019-02-07T04:48:21.848Z,100512.41
2019-02-07T04:51:08.799Z,100500.00
2019-02-07T04:53:48.407Z,100501.27
2019-02-07T04:56:35.075Z,100500.05
2019-02-07T04:59:13.923Z,100492.68
2019-02-07T05:02:01.946Z,100492.68
2019-02-07T05:05:02.376Z,100492.52
2019-02-07T05:07:53.583Z,100487.42
2019-02-07T05:10:40.463Z,100486.16
2019-02-07T05:13:27.524Z,100462.33
2019-02-07T05:16:14.484Z,100469.34
2019-02-07T05:18:54.086Z,100467.40
2019-02-07T05:21:39.293Z,100469.89
2019-02-07T05:24:27.104Z,100464.80
2019-02-07T05:27:13.915Z,100457.45
2019-02-07T05:30:17.453Z,100454.25
2019-02-07T05:32:59.414Z,100454.02
2019-02-07T05:35:58.811Z,100442.20
2019-02-07T05:38:36.630Z,100437.50
2019-02-07T05:41:23.437Z,100437.50
2019-02-07T05:44:14.387Z,100433.90
2019-02-07T05:47:01.258Z,100440.23
2019-02-07T05:49:48.053Z,100443.30
2019-02-07T05:52:39.127Z,100439.34
2019-02-07T05:55:20.073Z,100432.91
2019-02-07T05:58:06.899Z,100432.91
2019-02-07T06:00:46.114Z,100434.33
2019-02-07T06:03:27.946Z,100433.41
2019-02-07T06:06:31.294Z,100423.48
2019-02-07T06:09:15.028Z,100421.17
2019-02-07T06:12:05.857Z,100417.92
2019-02-07T06:14:52.646Z,100422.47
2019-02-07T06:17:43.697Z,100408.46
2019-02-07T06:20:34.683Z,100409.55
2019-02-07T06:23:21.314Z,100409.55
2019-02-07T06:26:12.361Z,100399.83
2019-02-07T06:29:03.125Z,100399.83
2019-02-07T06:31:43.883Z,100392.87
2019-02-07T06:34:47.371Z,100398.25
2019-02-07T06:37:32.665Z,100350.27
2019-02-07T06:40:29.728Z,100405.50
2019-02-07T06:43:10.982Z,100401.69
2019-02-07T06:46:02.782Z,100400.80
2019-02-07T06:49:06.080Z,100422.62
2019-02-07T06:51:45.165Z,100438.20
2019-02-07T06:54:27.340Z,100438.20
2019-02-07T06:57:16.901Z,100454.00
2019-02-07T07:00:05.663Z,100455.03
2019-02-07T07:02:49.085Z,100452.77
2019-02-07T07:05:35.825Z,100467.97
2019-02-07T07:08:12.700Z,100467.02
2019-02-07T07:11:06.383Z,100463.87
2019-02-07T07:13:51.577Z,100463.87
2019-02-07T07:16:31.580Z,100462.31
2019-02-07T07:19:23.656Z,100485.48
2019-02-07T07:22:07.788Z,100487.28
2019-02-07T07:25:04.746Z,100482.64
2019-02-07T07:28:01.777Z,100482.64
2019-02-07T07:30:51.497Z,100480.86
2019-02-07T07:33:42.666Z,100480.86
2019-02-07T07:36:29.366Z,100473.32
2019-02-07T07:39:26.628Z,100497.91
2019-02-07T07:42:13.332Z,100495.72
2019-02-07T07:45:07.481Z,100497.66
2019-02-07T07:47:53.944Z,100508.34
2019-02-07T07:50:57.144Z,100502.08
2019-02-07T07:53:54.233Z,100513.59
2019-02-07T07:56:53.387Z,100507.67
2019-02-07T07:59:40.512Z,100519.22
2019-02-07T08:02:17.691Z,100525.77
2019-02-07T08:05:04.872Z,100519.74
2019-02-07T08:07:51.992Z,100519.74
2019-02-07T08:10:29.938Z,100515.84
2019-02-07T08:13:20.951Z,100538.77
2019-02-07T08:16:00.714Z,100530.02
2019-02-07T08:18:42.214Z,100525.29
2019-02-07T08:21:28.911Z,100525.29
2019-02-07T08:24:20.129Z,100532.47
2019-02-07T08:27:11.351Z,100529.93
2019-02-07T08:29:58.460Z,100537.83
2019-02-07T08:32:45.446Z,100535.77
2019-02-07T08:35:37.532Z,100542.20
2019-02-07T08:38:24.209Z,100538.16
2019-02-07T08:41:11.094Z,100544.41
2019-02-07T08:43:59.071Z,100544.41
2019-02-07T08:46:46.059Z,100552.88
2019-02-07T08:49:33.143Z,100560.92
2019-02-07T08:52:16.124Z,100554.55
2019-02-07T08:54:54.504Z,100549.28
2019-02-07T08:57:52.553Z,100549.28
2019-02-07T09:00:43.575Z,100562.39
2019-02-07T09:03:32.322Z,100550.42
2019-02-07T09:06:20.414Z,100550.42
2019-02-07T09:09:19.848Z,100557.88
2019-02-07T09:12:13.886Z,100557.88
2019-02-07T09:15:02.276Z,100542.89
2019-02-07T09:17:50.216Z,100542.89
2019-02-07T09:20:36.977Z,100546.17
2019-02-07T09:23:34.130Z,100545.22
2019-02-07T09:26:29.005Z,100548.89
2019-02-07T09:29:15.624Z,100535.27
2019-02-07T09:31:59.319Z,100544.25
2019-02-07T09:34:42.317Z,100544.25
2019-02-07T09:37:28.836Z,100556.73
2019-02-07T09:40:34.691Z,100556.73
2019-02-07T09:43:16.515Z,100554.62
2019-02-07T09:46:23.007Z,100553.20
2019-02-07T09:49:14.327Z,100545.73
2019-02-07T09:52:02.453Z,100545.73
2019-02-07T09:54:50.592Z,100551.31
2019-02-07T09:57:37.573Z,100551.31
2019-02-07T10:00:20.117Z,100550.88
2019-02-07T10:03:08.134Z,100550.88
2019-02-07T10:05:55.363Z,100550.23
2019-02-07T10:09:01.481Z,100540.61
2019-02-07T10:11:49.605Z,100551.59
2019-02-07T10:14:36.703Z,100548.22
2019-02-07T10:17:38.436Z,100555.06
2019-02-07T10:20:37.429Z,100555.06
2019-02-07T10:23:20.302Z,100546.30
2019-02-07T10:26:12.063Z,100553.70
2019-02-07T10:29:08.241Z,100554.74
2019-02-07T10:31:47.780Z,100542.73
2019-02-07T10:34:35.901Z,100495.70
2019-02-07T10:37:16.561Z,100549.27
2019-02-07T10:40:07.637Z,100539.30
2019-02-07T10:43:01.467Z,100552.33
2019-02-07T10:46:04.767Z,100553.46
2019-02-07T10:48:48.379Z,100555.00
2019-02-07T10:51:35.280Z,100551.30
2019-02-07T10:54:22.211Z,100534.02
2019-02-07T10:57:10.902Z,100549.11
2019-02-07T11:00:03.395Z,100549.11
2019-02-07T11:03:06.820Z,100552.38
2019-02-07T11:05:45.532Z,100554.05
2019-02-07T11:08:45.775Z,100552.75
2019-02-07T11:11:21.107Z,100555.28
2019-02-07T11:14:11.429Z,100549.33
2019-02-07T11:17:05.617Z,100477.25
2019-02-07T11:19:42.195Z,100555.02
2019-02-07T11:22:48.729Z,100555.02
2019-02-07T11:25:42.416Z,100547.98
2019-02-07T11:28:30.621Z,100550.77
2019-02-07T11:31:13.288Z,100550.77
2019-02-07T11:33:48.315Z,100546.48
2019-02-07T11:36:54.184Z,100530.14
2019-02-07T11:39:53.470Z,100528.66
2019-02-07T11:42:44.119Z,100528.66
2019-02-07T11:45:35.591Z,100539.81
2019-02-07T11:48:31.641Z,100522.34
2019-02-07T11:51:30.528Z,100538.83
2019-02-07T11:54:17.380Z,100543.75
2019-02-07T11:57:12.126Z,100528.98
2019-02-07T12:00:12.349Z,100522.06
2019-02-07T12:02:58.440Z,100522.06
2019-02-07T12:05:53.969Z,100530.84
2019-02-07T12:08:40.533Z,100530.84
2019-02-07T12:11:27.481Z,100509.95
2019-02-07T12:14:11.526Z,100518.77
2019-02-07T12:16:57.124Z,100525.18
2019-02-07T12:19:45.497Z,100515.31
2019-02-07T12:22:22.885Z,100515.31
2019-02-07T12:25:05.238Z,100517.31
2019-02-07T12:27:52.136Z,100529.55
2019-02-07T12:30:39.289Z,100534.77
2019-02-07T12:33:36.550Z,100523.41
2019-02-07T12:36:16.705Z,100535.28
2019-02-07T12:39:05.713Z,100536.28
2019-02-07T12:42:00.157Z,100523.45
2019-02-07T12:44:48.203Z,100536.16
2019-02-07T12:47:51.376Z,100531.53
2019-02-07T12:50:50.205Z,100531.53
2019-02-07T12:53:47.115Z,100518.33
2019-02-07T12:56:39.429Z,100506.11
2019-02-07T12:59:26.406Z,100518.62
2019-02-07T13:02:16.391Z,100505.23
2019-02-07T13:05:03.346Z,100517.54
2019-02-07T13:07:50.653Z,100512.97
2019-02-07T13:10:44.100Z,100512.97
2019-02-07T13:13:21.115Z,100509.27
2019-02-07T13:16:24.745Z,100514.83
2019-02-07T13:19:24.890Z,100514.83
2019-02-07T13:22:15.956Z,100514.77
2019-02-07T13:25:03.102Z,100505.08
2019-02-07T13:27:57.510Z,100505.08
2019-02-07T13:31:00.455Z,100506.09
2019-02-07T13:34:03.755Z,100512.78
2019-02-07T13:36:57.822Z,100512.78
2019-02-07T13:39:45.818Z,100502.58
2019-02-07T13:42:34.717Z,100502.58
2019-02-07T13:45:23.065Z,100500.80
2019-02-07T13:48:13.823Z,100500.80
2019-02-07T13:51:01.747Z,100504.98
2019-02-07T13:53:41.779Z,100502.11
2019-02-07T13:56:28.828Z,100502.11
2019-02-07T13:59:22.581Z,100489.33
2019-02-07T14:02:17.360Z,100489.33
2019-02-07T14:05:14.513Z,100496.86
2019-02-07T14:08:11.781Z,100511.77
2019-02-07T14:11:02.696Z,100499.38
2019-02-07T14:13:47.944Z,100499.38
2019-02-07T14:16:35.095Z,100520.11
2019-02-07T14:19:35.484Z,100515.17
2019-02-07T14:22:23.065Z,100505.11
2019-02-07T14:25:17.538Z,100526.14
2019-02-07T14:28:02.914Z,100526.14
2019-02-07T14:30:43.688Z,100521.08
2019-02-07T14:33:29.846Z,100527.70
2019-02-07T14:36:16.775Z,100523.60
2019-02-07T14:39:20.433Z,100525.47
2019-02-07T14:42:14.429Z,100524.07
2019-02-07T14:45:05.275Z,100545.09
2019-02-07T14:47:34.269Z,100545.77
2019-02-07T14:50:14.260Z,100545.77
2019-02-07T14:52:53.467Z,100543.88
2019-02-07T14:55:22.821Z,100546.88
2019-02-07T14:57:51.978Z,100546.88
2019-02-07T15:00:23.545Z,100559.13
2019-02-07T15:02:52.804Z,100559.13
2019-02-07T15:05:22.546Z,100567.50
2019-02-07T15:07:51.655Z,100567.78
2019-02-07T15:10:21.271Z,100556.88
2019-02-07T15:12:50.566Z,100560.97
2019-02-07T15:15:20.796Z,100557.14
2019-02-07T15:17:49.896Z,100572.55
2019-02-07T15:20:25.753Z,100582.37
2019-02-07T15:22:49.914Z,100582.37
2019-02-07T15:25:19.380Z,100583.00
2019-02-07T15:27:48.378Z,100583.00
2019-02-07T15:30:18.281Z,100591.09
2019-02-07T15:32:47.481Z,100591.09
2019-02-07T15:35:22.720Z,100582.92
2019-02-07T15:37:51.866Z,100577.00
2019-02-07T15:40:25.365Z,100577.00
2019-02-07T15:42:53.970Z,100600.10
2019-02-07T15:45:24.782Z,100594.88
2019-02-07T15:47:53.960Z,100589.91
2019-02-07T15:50:23.836Z,100601.73
2019-02-07T15:52:54.970Z,100605.50
2019-02-07T15:55:24.711Z,100614.83
2019-02-07T15:57:53.929Z,100615.52
2019-02-07T16:00:41.950Z,100622.91
2019-02-07T16:03:15.963Z,100622.91
2019-02-07T16:05:45.052Z,100613.67
2019-02-07T16:08:14.119Z,100633.59
2019-02-07T16:10:43.235Z,100633.59
2019-02-07T16:13:13.745Z,100623.02
2019-02-07T16:15:42.893Z,100618.82
2019-02-07T16:18:12.382Z,100633.05
2019-02-07T16:20:48.700Z,100647.33
2019-02-07T16:23:12.476Z,100641.05
2019-02-07T16:25:41.665Z,100648.39
2019-02-07T16:28:24.766Z,100651.38
2019-02-07T16:30:55.399Z,100650.11
2019-02-07T16:33:24.591Z,100648.31
2019-02-07T16:35:53.819Z,100652.87
2019-02-07T16:38:27.496Z,100658.93
2019-02-07T16:40:56.640Z,100658.93
2019-02-07T16:43:26.381Z,100656.69
2019-02-07T16:45:56.765Z,100667.36
2019-02-07T16:48:25.997Z,100667.36
2019-02-07T16:51:00.218Z,100664.98
2019-02-07T16:53:25.985Z,100673.44
2019-02-07T16:55:55.157Z,100673.44
2019-02-07T16:58:25.007Z,100685.94
2019-02-07T17:00:54.161Z,100684.16
2019-02-07T17:03:24.694Z,100698.75
2019-02-07T17:05:53.928Z,100698.75
2019-02-07T17:08:23.138Z,100694.23
2019-02-07T17:10:52.377Z,100695.09
2019-02-07T17:13:22.998Z,100703.81
2019-02-07T17:15:52.208Z,100713.06
2019-02-07T17:18:21.536Z,100713.06
2019-02-07T17:20:50.662Z,100708.33
2019-02-07T17:23:19.689Z,100711.61
2019-02-07T17:25:48.848Z,100722.06
2019-02-07T17:28:17.883Z,100722.58
2019-02-07T17:30:47.419Z,100728.52
2019-02-07T17:33:16.604Z,100728.52
2019-02-07T17:35:46.653Z,100729.22
2019-02-07T17:38:15.850Z,100729.22
2019-02-07T17:40:44.993Z,100738.03
2019-02-07T17:43:14.163Z,100738.03
2019-02-07T17:45:43.350Z,100729.02
2019-02-07T17:48:13.938Z,100745.87
2019-02-07T17:50:43.369Z,100749.25
2019-02-07T17:53:12.709Z,100760.64
2019-02-07T17:55:41.872Z,100753.14
2019-02-07T17:58:11.573Z,100762.59
2019-02-07T18:00:57.336Z,100769.89
2019-02-07T18:03:26.458Z,100766.68
2019-02-07T18:05:55.602Z,100766.68
2019-02-07T18:08:27.722Z,100773.34
2019-02-07T18:10:57.184Z,100776.96
2019-02-07T18:13:26.378Z,100776.96
2019-02-07T18:15:57.437Z,100772.28
2019-02-07T18:18:26.204Z,100772.28
2019-02-07T18:20:55.440Z,100781.61
2019-02-07T18:23:24.489Z,100794.19
2019-02-07T18:25:53.612Z,100795.09
2019-02-07T18:28:23.214Z,100795.09
2019-02-07T18:30:52.356Z,100800.69
2019-02-07T18:33:21.434Z,100800.73
2019-02-07T18:35:50.560Z,100800.73
2019-02-07T18:38:21.208Z,100802.78
2019-02-07T18:40:50.305Z,100802.78
2019-02-07T18:43:19.306Z,100811.47
2019-02-07T18:45:48.721Z,100811.47
2019-02-07T18:48:17.814Z,100803.66
2019-02-07T18:50:46.889Z,100819.87
2019-02-07T18:53:15.970Z,100819.36
2019-02-07T18:55:45.712Z,100821.62
2019-02-07T18:58:14.766Z,100826.51
2019-02-07T19:00:44.088Z,100805.77
2019-02-07T19:03:13.077Z,100805.77
2019-02-07T19:05:42.231Z,100823.20
2019-02-07T19:08:11.405Z,100823.20
2019-02-07T19:10:41.879Z,100829.14
2019-02-07T19:13:11.056Z,100829.14
2019-02-07T19:15:52.456Z,100835.59
2019-02-07T19:18:22.569Z,100835.59
2019-02-07T19:20:51.663Z,100835.39
2019-02-07T19:23:21.011Z,100835.39
2019-02-07T19:25:50.128Z,100835.09
2019-02-07T19:28:19.143Z,100843.33
2019-02-07T19:30:48.287Z,100850.91
2019-02-07T19:33:17.349Z,100850.91
2019-02-07T19:35:46.409Z,100848.95
2019-02-07T19:38:15.442Z,100848.95
2019-02-07T19:40:44.935Z,100853.98
2019-02-07T19:43:14.040Z,100853.98
2019-02-07T19:45:43.035Z,100867.44
2019-02-07T19:48:12.236Z,100865.66
2019-02-07T19:50:41.321Z,100867.91
2019-02-07T19:53:10.381Z,100866.45
2019-02-07T19:55:42.463Z,100875.02
2019-02-07T19:58:14.418Z,100875.02
2019-02-07T20:00:43.633Z,100873.78
2019-02-07T20:03:12.645Z,100879.33
2019-02-07T20:05:41.795Z,100885.45
2019-02-07T20:08:11.165Z,100885.45
2019-02-07T20:10:40.248Z,100880.70
2019-02-07T20:13:09.347Z,100873.27
2019-02-07T20:15:40.333Z,100873.27
2019-02-07T20:18:10.622Z,100887.97
2019-02-07T20:20:40.139Z,100885.09
2019-02-07T20:23:09.344Z,100888.27
2019-02-07T20:25:39.025Z,100888.27
2019-02-07T20:28:08.301Z,100883.92
2019-02-07T20:30:39.366Z,100890.17
2019-02-07T20:33:09.897Z,100890.17
2019-02-07T20:35:39.075Z,100882.83
2019-02-07T20:38:09.217Z,100882.83
2019-02-07T20:40:38.415Z,100897.31
2019-02-07T20:43:08.064Z,100893.98
2019-02-07T20:45:37.256Z,100899.09
2019-02-07T20:48:08.676Z,100889.44
2019-02-07T20:50:37.773Z,100901.42
2019-02-07T20:53:07.683Z,100901.42
2019-02-07T20:55:36.845Z,100907.80
2019-02-07T20:58:06.545Z,100912.17
2019-02-07T21:00:40.582Z,100917.81
2019-02-07T21:03:09.721Z,100914.64
2019-02-07T21:05:39.224Z,100917.25
2019-02-07T21:08:23.942Z,100918.58
2019-02-07T21:10:54.273Z,100922.05
2019-02-07T21:13:23.848Z,100922.05
2019-02-07T21:15:52.949Z,100933.97
2019-02-07T21:18:22.057Z,100933.97
2019-02-07T21:20:51.181Z,100943.64
2019-02-07T21:23:20.367Z,100943.64
2019-02-07T21:25:52.240Z,100948.94
2019-02-07T21:28:21.214Z,100939.30
2019-02-07T21:30:51.185Z,100939.30
2019-02-07T21:33:20.313Z,100957.48
2019-02-07T21:35:49.481Z,100957.48
2019-02-07T21:38:18.535Z,100969.34
2019-02-07T21:40:47.607Z,100964.48
2019-02-07T21:43:16.731Z,100964.48
2019-02-07T21:45:45.823Z,100969.28
2019-02-07T21:48:14.895Z,100974.66
2019-02-07T21:50:43.944Z,100974.66
2019-02-07T21:53:13.082Z,100980.19
2019-02-07T21:55:42.155Z,100971.36
2019-02-07T21:58:12.183Z,100971.36
2019-02-07T22:00:43.592Z,100983.20
2019-02-07T22:03:14.661Z,100987.72
2019-02-07T22:05:43.891Z,100987.72
2019-02-07T22:08:13.260Z,100994.67
2019-02-07T22:10:43.721Z,100994.67
2019-02-07T22:13:13.259Z,101003.35
2019-02-07T22:15:42.690Z,101003.35
2019-02-07T22:18:11.978Z,101005.73
2019-02-07T22:20:41.097Z,101005.73
2019-02-07T22:23:10.331Z,101003.91
2019-02-07T22:25:39.416Z,101003.91
2019-02-07T22:28:09.900Z,101010.55
2019-02-07T22:30:39.470Z,101010.55
2019-02-07T22:33:09.422Z,101006.83
2019-02-07T22:35:38.516Z,101006.83
2019-02-07T22:38:08.722Z,101016.66
2019-02-07T22:40:37.955Z,101017.53
2019-02-07T22:43:07.471Z,101017.53
2019-02-07T22:45:36.886Z,101015.33
2019-02-07T22:48:07.008Z,101015.33
2019-02-07T22:50:36.203Z,101008.32
2019-02-07T22:53:05.882Z,101027.64
2019-02-07T22:55:35.057Z,101022.44
2019-02-07T22:58:05.423Z,101022.73
2019-02-07T23:01:17.502Z,101013.53
2019-02-07T23:03:54.107Z,101013.53
2019-02-07T23:06:23.371Z,101022.23
2019-02-07T23:08:52.534Z,101024.44
2019-02-07T23:11:21.774Z,101019.86
2019-02-07T23:13:50.937Z,101019.86
2019-02-07T23:16:20.225Z,101014.16
2019-02-07T23:18:49.830Z,101020.30
2019-02-07T23:21:19.016Z,101022.88
2019-02-07T23:23:48.102Z,101006.17
2019-02-07T23:26:17.259Z,101025.73
2019-02-07T23:28:46.382Z,101022.11
2019-02-07T23:31:15.485Z,101032.55
2019-02-07T23:33:44.905Z,101021.77
2019-02-07T23:36:14.037Z,101018.96
2019-02-07T23:38:43.041Z,101019.13
2019-02-07T23:41:12.041Z,101011.35
2019-02-07T23:43:45.864Z,101011.35
2019-02-07T23:46:12.172Z,101029.55
2019-02-07T23:48:41.609Z,101026.44
2019-02-07T23:51:10.789Z,101033.77
2019-02-07T23:53:39.965Z,101036.98
2019-02-07T23:56:09.213Z,101037.19
2019-02-07T23:58:38.273Z,101037.19
